Time;durP1;ratioP1;P1;durP2;ratioP2;P2;SDS_P1;SDS_P2;PMS_P1;PMS_P2;Temp;Humidity;BMP_temperature;BMP_pressure;BME280_temperature;BME280_humidity;BME280_pressure;Samples;Min_cycle;Max_cycle;Signal;HPM_P1;HPM_P2
2021/04/03 01:24:40;;;;;;;15.45;11.20;;;2.60;99.90;;;;;;6257341;22;20388;-92
2021/04/03 01:47:23;;;;;;;18.75;12.90;;;2.20;99.90;;;;;;6281625;22;20393;-91
2021/04/03 01:51:05;;;;;;;19.67;13.60;;;2.30;99.90;;;;;;6218391;23;20449;-91
2021/04/03 01:54:52;;;;;;;19.77;13.10;;;2.00;99.90;;;;;;6230937;23;20386;-93
2021/04/03 01:58:25;;;;;;;21.10;14.02;;;1.90;99.90;;;;;;6085718;23;20782;-93
2021/04/03 02:12:28;;;;;;;18.88;13.88;;;1.70;99.90;;;;;;6110935;23;20405;-92
2021/04/03 02:16:03;;;;;;;19.88;13.65;;;1.90;99.90;;;;;;6087227;23;20414;-92
2021/04/03 02:19:56;;;;;;;22.35;13.90;;;2.00;99.90;;;;;;6016388;23;20365;-93
2021/04/03 02:22:57;;;;;;;18.33;13.10;;;2.00;99.90;;;;;;6060342;23;20397;-90
2021/04/03 03:53:52;;;;;;;22.98;13.63;;;1.90;99.90;;;;;;6246033;22;20749;-90
2021/04/03 03:56:30;;;;;;;24.55;14.05;;;1.90;99.90;;;;;;6234332;23;20390;-91
2021/04/03 03:59:19;;;;;;;21.67;12.65;;;1.80;99.90;;;;;;6149287;23;20847;-90
2021/04/03 04:02:04;;;;;;;20.30;12.32;;;1.80;99.90;;;;;;6237956;23;20394;-91
2021/04/03 04:05:10;;;;;;;20.95;12.75;;;1.70;99.90;;;;;;6235409;23;20432;-91
2021/04/03 04:08:20;;;;;;;18.70;11.70;;;1.80;99.90;;;;;;6264600;22;20854;-92
2021/04/03 04:11:16;;;;;;;19.92;13.18;;;1.80;99.90;;;;;;6236823;23;20394;-92
2021/04/03 04:14:18;;;;;;;21.35;14.68;;;1.80;99.90;;;;;;6200007;23;20366;-91
2021/04/03 04:23:17;;;;;;;16.90;11.07;;;1.90;99.90;;;;;;6198637;23;20393;-91
2021/04/03 04:26:31;;;;;;;16.75;10.73;;;1.90;99.90;;;;;;6201779;23;20400;-92
2021/04/03 04:29:38;;;;;;;18.20;10.20;;;1.80;99.90;;;;;;6169340;23;20449;-91
2021/04/03 04:35:31;;;;;;;18.63;10.43;;;1.80;99.90;;;;;;6288316;22;20386;-91
2021/04/03 04:38:36;;;;;;;19.80;10.17;;;1.80;99.90;;;;;;6260046;22;20391;-91
2021/04/03 04:42:07;;;;;;;18.30;10.80;;;1.80;99.90;;;;;;6195708;23;20486;-90
2021/04/03 04:45:03;;;;;;;15.50;10.57;;;1.80;99.90;;;;;;6240001;22;20424;-91
2021/04/03 04:48:11;;;;;;;14.85;10.00;;;1.70;99.90;;;;;;6100623;23;20447;-91
2021/04/03 04:53:38;;;;;;;14.98;8.68;;;1.70;99.90;;;;;;6282932;22;20388;-89
2021/04/03 04:56:38;;;;;;;15.80;10.13;;;1.70;99.90;;;;;;6276763;22;20379;-92
2021/04/03 05:05:55;;;;;;;15.80;9.55;;;1.70;99.90;;;;;;6266296;22;20395;-92
2021/04/03 05:08:35;;;;;;;16.83;9.73;;;1.80;99.90;;;;;;6293100;22;20383;-93
2021/04/03 05:11:15;;;;;;;14.90;9.38;;;1.90;99.90;;;;;;6320749;22;20413;-94
2021/04/03 05:14:10;;;;;;;20.10;10.75;;;1.80;99.90;;;;;;6296459;22;20374;-91
2021/04/03 05:20:44;;;;;;;17.05;10.23;;;1.60;99.90;;;;;;6281399;22;20420;-91
2021/04/03 05:23:19;;;;;;;17.08;10.82;;;1.50;99.90;;;;;;6263035;22;20404;-92
2021/04/03 05:25:53;;;;;;;16.45;9.80;;;1.60;99.90;;;;;;6263605;22;20380;-92
2021/04/03 05:31:47;;;;;;;17.27;10.35;;;1.50;99.90;;;;;;6267640;22;20392;-91
2021/04/03 05:34:40;;;;;;;23.38;12.32;;;1.50;99.90;;;;;;6287666;22;20705;-91
2021/04/03 05:37:30;;;;;;;28.23;16.85;;;1.50;99.90;;;;;;6287300;22;20439;-91
2021/04/03 05:40:21;;;;;;;17.52;10.90;;;1.60;99.90;;;;;;6291493;22;20467;-90
2021/04/03 05:43:07;;;;;;;22.65;12.98;;;1.70;99.90;;;;;;6289062;22;20464;-90
2021/04/03 05:45:40;;;;;;;33.13;18.40;;;1.70;99.90;;;;;;6290278;22;20399;-92
2021/04/03 05:48:31;;;;;;;25.20;18.05;;;1.80;99.90;;;;;;6288913;22;20452;-90
2021/04/03 05:51:26;;;;;;;36.43;27.03;;;1.70;99.90;;;;;;6266323;22;20368;-91
2021/04/03 05:54:18;;;;;;;45.22;40.28;;;1.60;99.90;;;;;;6262323;22;20373;-91
2021/04/03 05:57:13;;;;;;;18.88;14.65;;;1.60;99.90;;;;;;6287336;22;20465;-90
2021/04/03 06:00:06;;;;;;;17.73;12.85;;;1.70;99.90;;;;;;6281816;22;20449;-92
2021/04/03 06:02:55;;;;;;;18.30;11.05;;;1.70;99.90;;;;;;6196195;22;20550;-91
2021/04/03 06:16:23;;;;;;;13.45;7.53;;;2.60;99.90;;;;;;6278737;22;20384;-89
2021/04/03 06:19:08;;;;;;;13.60;8.05;;;2.80;99.90;;;;;;6256678;22;20387;-90
2021/04/03 06:21:42;;;;;;;12.80;7.50;;;2.80;99.30;;;;;;6250418;22;20396;-90
2021/04/03 06:24:23;;;;;;;12.10;7.10;;;2.60;99.10;;;;;;6262184;22;20379;-90
2021/04/03 06:27:17;;;;;;;9.15;5.90;;;2.40;98.50;;;;;;6290626;22;20376;-94
2021/04/03 06:29:57;;;;;;;13.68;6.13;;;2.40;98.60;;;;;;6292748;22;20371;-91
2021/04/03 06:32:50;;;;;;;18.92;8.82;;;2.40;98.60;;;;;;6265931;22;20362;-89
2021/04/03 06:35:23;;;;;;;13.45;6.20;;;2.70;98.70;;;;;;6255333;22;20455;-88
2021/04/03 06:37:50;;;;;;;17.38;7.65;;;2.70;97.70;;;;;;6256463;22;20443;-90
2021/04/03 06:40:18;;;;;;;16.42;7.50;;;2.60;98.00;;;;;;6277365;22;20399;-91
2021/04/03 06:42:57;;;;;;;12.90;7.10;;;2.70;97.90;;;;;;6304123;22;20455;-90
2021/04/03 06:45:36;;;;;;;10.82;5.35;;;2.70;97.70;;;;;;6294083;22;20442;-89
2021/04/03 06:48:09;;;;;;;9.88;5.75;;;2.60;97.30;;;;;;6265224;22;20459;-89
2021/04/03 06:50:44;;;;;;;9.57;6.22;;;2.60;98.30;;;;;;6235440;22;20437;-89
2021/04/03 06:53:19;;;;;;;12.55;6.35;;;2.70;98.30;;;;;;6284048;22;20364;-90
2021/04/03 06:56:05;;;;;;;9.90;5.40;;;2.60;99.20;;;;;;6235290;22;20408;-90
2021/04/03 06:58:36;;;;;;;11.95;5.97;;;2.60;99.00;;;;;;6263654;22;20376;-94
2021/04/03 07:01:10;;;;;;;9.57;5.50;;;2.60;98.80;;;;;;6214399;22;20455;-94
2021/04/03 07:03:59;;;;;;;10.77;5.30;;;2.60;98.40;;;;;;6297605;22;20372;-91
2021/04/03 07:06:55;;;;;;;9.75;5.60;;;2.50;98.90;;;;;;6300234;22;20435;-92
2021/04/03 07:09:41;;;;;;;14.50;7.22;;;2.60;99.40;;;;;;6295110;22;20426;-92
2021/04/03 07:12:26;;;;;;;10.23;5.57;;;2.70;99.40;;;;;;6269083;22;20809;-90
2021/04/03 07:15:17;;;;;;;9.23;5.38;;;2.60;98.40;;;;;;6234438;22;20414;-90
2021/04/03 07:18:34;;;;;;;14.40;6.00;;;2.50;99.80;;;;;;6228395;23;20383;-92
2021/04/03 07:21:43;;;;;;;9.70;5.40;;;2.60;99.90;;;;;;6125031;23;20396;-89
2021/04/03 07:24:42;;;;;;;12.55;5.45;;;2.80;98.60;;;;;;6092276;23;20382;-91
2021/04/03 07:27:52;;;;;;;11.38;5.72;;;2.80;99.50;;;;;;6107823;23;20404;-92
2021/04/03 07:30:57;;;;;;;12.15;5.32;;;2.90;98.40;;;;;;6141745;23;20444;-92
2021/04/03 07:33:50;;;;;;;12.40;5.80;;;2.70;99.10;;;;;;6077972;23;20408;-96
2021/04/03 07:37:00;;;;;;;17.47;7.03;;;2.60;99.90;;;;;;6078302;23;20412;-93
2021/04/03 07:49:12;;;;;;;10.80;6.18;;;2.20;99.90;;;;;;6294205;22;20408;-91
2021/04/03 07:52:48;;;;;;;14.88;7.53;;;2.50;99.90;;;;;;6249319;22;21010;-92
2021/04/03 07:56:07;;;;;;;14.55;7.20;;;2.70;99.90;;;;;;6258092;22;20380;-91
2021/04/03 07:59:34;;;;;;;14.00;7.68;;;2.90;99.90;;;;;;6277025;22;20384;-90
2021/04/03 08:02:48;;;;;;;13.73;7.40;;;3.00;99.90;;;;;;6210383;23;20469;-91
2021/04/03 08:05:42;;;;;;;15.13;8.60;;;2.80;99.90;;;;;;6175755;23;20453;-92
2021/04/03 08:09:09;;;;;;;14.05;7.65;;;2.90;99.90;;;;;;6168908;23;20409;-90
2021/04/03 08:12:07;;;;;;;12.80;6.93;;;2.70;99.90;;;;;;6166666;23;20430;-93
2021/04/03 08:15:31;;;;;;;15.75;7.85;;;2.30;99.90;;;;;;6134308;23;20416;-91
2021/04/03 08:24:14;;;;;;;11.48;6.45;;;2.80;99.90;;;;;;6262029;22;20405;-91
2021/04/03 08:27:38;;;;;;;9.33;6.40;;;2.90;99.90;;;;;;6222428;22;20381;-92
2021/04/03 08:30:59;;;;;;;7.30;4.47;;;3.20;99.90;;;;;;6207147;23;20430;-92
2021/04/03 08:34:04;;;;;;;10.25;6.00;;;3.40;99.90;;;;;;6258657;23;20843;-92
2021/04/03 08:36:48;;;;;;;10.00;5.75;;;3.50;99.90;;;;;;6259090;23;20374;-91
2021/04/03 08:39:34;;;;;;;8.75;4.97;;;3.70;99.90;;;;;;6260440;23;20394;-92
2021/04/03 08:42:18;;;;;;;9.90;4.88;;;3.90;99.90;;;;;;6206600;23;20405;-92
2021/04/03 08:45:03;;;;;;;9.75;5.10;;;3.60;99.90;;;;;;6253488;22;20361;-92
2021/04/03 08:48:02;;;;;;;8.50;4.90;;;3.80;99.90;;;;;;6235598;23;20484;-92
2021/04/03 08:50:49;;;;;;;9.77;5.30;;;3.70;99.90;;;;;;6260551;23;20372;-92
2021/04/03 08:54:09;;;;;;;7.88;4.88;;;3.90;99.90;;;;;;6238670;23;20851;-91
2021/04/03 08:57:25;;;;;;;9.20;5.18;;;4.00;99.90;;;;;;6214010;22;20408;-91
2021/04/03 09:00:30;;;;;;;9.60;4.80;;;4.00;99.90;;;;;;6257485;23;20584;-93
2021/04/03 09:03:22;;;;;;;6.70;4.57;;;3.90;99.90;;;;;;6201104;23;20409;-91
2021/04/03 09:06:11;;;;;;;8.85;4.13;;;4.00;99.90;;;;;;6206938;23;20382;-91
2021/04/03 09:09:38;;;;;;;7.03;3.95;;;4.10;99.90;;;;;;6221395;23;20425;-92
2021/04/03 09:12:45;;;;;;;7.90;4.53;;;3.80;99.90;;;;;;6259127;23;20374;-92
2021/04/03 09:16:16;;;;;;;10.60;4.30;;;4.10;99.90;;;;;;6256925;23;20420;-91
2021/04/03 09:19:12;;;;;;;20.90;8.77;;;4.30;99.90;;;;;;6241536;23;20761;-90
2021/04/03 09:22:39;;;;;;;18.60;6.93;;;4.70;99.30;;;;;;6237430;23;20452;-91
2021/04/03 09:25:37;;;;;;;15.65;6.30;;;5.00;99.00;;;;;;6232521;23;20416;-90
2021/04/03 09:28:36;;;;;;;15.40;5.53;;;5.10;97.30;;;;;;6152266;23;20389;-91
2021/04/03 09:31:37;;;;;;;7.07;3.78;;;5.40;95.80;;;;;;6192777;23;20925;-92
2021/04/03 09:34:37;;;;;;;7.45;3.88;;;5.40;94.20;;;;;;6189179;23;20458;-91
2021/04/03 09:37:13;;;;;;;7.72;4.20;;;5.00;95.10;;;;;;6190997;23;20385;-91
2021/04/03 09:40:04;;;;;;;10.17;4.60;;;4.80;92.80;;;;;;6195977;23;20380;-88
2021/04/03 09:42:31;;;;;;;8.05;3.90;;;5.00;93.20;;;;;;6203270;23;20408;-90
2021/04/03 09:45:08;;;;;;;5.97;3.28;;;5.30;94.80;;;;;;6205605;23;20424;-88
2021/04/03 09:47:40;;;;;;;7.45;2.72;;;5.70;92.70;;;;;;6199144;23;20433;-90
2021/04/03 09:50:16;;;;;;;6.13;2.92;;;5.90;91.10;;;;;;6172979;23;20401;-89
2021/04/03 09:52:55;;;;;;;7.78;3.60;;;5.30;92.60;;;;;;6195893;23;20389;-94
2021/04/03 09:55:23;;;;;;;6.00;3.30;;;4.70;94.60;;;;;;6193398;23;20389;-91
2021/04/03 09:57:50;;;;;;;7.03;3.50;;;4.80;94.80;;;;;;6169767;23;20409;-91
2021/04/03 10:00:19;;;;;;;5.05;2.85;;;5.00;93.80;;;;;;6192736;23;20436;-91
2021/04/03 10:02:47;;;;;;;4.10;2.50;;;5.10;92.50;;;;;;6194013;23;20814;-90
2021/04/03 10:05:24;;;;;;;5.93;3.03;;;4.90;92.80;;;;;;6195626;23;20470;-89
2021/04/03 10:07:55;;;;;;;11.60;3.58;;;4.60;93.00;;;;;;6193261;23;20555;-91
2021/04/03 10:10:59;;;;;;;5.70;3.10;;;4.60;93.20;;;;;;6198155;23;20382;-92
2021/04/03 10:13:51;;;;;;;6.63;3.67;;;4.40;94.10;;;;;;6052672;23;20572;-94
2021/04/03 10:17:15;;;;;;;8.95;4.30;;;4.30;94.20;;;;;;6049017;23;20815;-92
2021/04/03 10:19:56;;;;;;;5.35;2.60;;;4.20;93.70;;;;;;6017917;23;20393;-91
2021/04/03 10:22:46;;;;;;;5.35;3.35;;;4.30;93.00;;;;;;6050686;23;20409;-91
2021/04/03 10:26:01;;;;;;;5.65;3.38;;;4.30;93.50;;;;;;6052041;23;20992;-91
2021/04/03 10:28:47;;;;;;;8.13;3.45;;;4.30;93.50;;;;;;6024888;23;20396;-92
2021/04/03 10:32:26;;;;;;;6.05;3.20;;;4.20;94.40;;;;;;5963884;24;20402;-92
2021/04/03 10:35:37;;;;;;;6.87;3.17;;;4.20;94.50;;;;;;5969104;24;20424;-93
2021/04/03 10:45:53;;;;;;;5.28;3.17;;;5.30;95.50;;;;;;6078474;23;20445;-92
2021/04/03 10:48:31;;;;;;;6.13;3.60;;;6.10;95.00;;;;;;6079244;23;20384;-90
2021/04/03 10:51:13;;;;;;;4.10;2.70;;;6.30;90.70;;;;;;6059098;23;20464;-92
2021/04/03 10:54:32;;;;;;;3.80;2.45;;;6.70;93.30;;;;;;6111645;23;20449;-92
2021/04/03 10:57:17;;;;;;;4.40;2.50;;;7.50;87.70;;;;;;6110758;23;20379;-92
2021/04/03 11:00:28;;;;;;;4.15;2.80;;;7.40;84.10;;;;;;6230857;22;20388;-94
2021/04/03 11:02:58;;;;;;;5.32;2.80;;;7.00;85.90;;;;;;6272444;22;20375;-92
2021/04/03 11:05:38;;;;;;;7.00;2.45;;;6.60;88.60;;;;;;6201845;23;20474;-92
2021/04/03 11:08:52;;;;;;;6.00;2.70;;;6.10;90.60;;;;;;6083703;23;20444;-93
2021/04/03 11:12:21;;;;;;;3.97;2.40;;;5.60;94.00;;;;;;6080122;23;20388;-93
2021/04/03 11:15:30;;;;;;;3.78;2.33;;;5.50;92.20;;;;;;6081121;23;20392;-92
2021/04/03 11:18:21;;;;;;;4.88;2.20;;;5.40;92.50;;;;;;6056113;23;20380;-92
2021/04/03 11:21:51;;;;;;;4.97;3.00;;;5.40;90.70;;;;;;6083801;23;20383;-92
2021/04/03 11:24:26;;;;;;;6.55;2.30;;;4.90;92.80;;;;;;6084486;23;20415;-94
2021/04/03 11:26:58;;;;;;;4.82;2.90;;;4.50;94.10;;;;;;6062810;23;20961;-92
2021/04/03 11:30:36;;;;;;;11.02;5.78;;;4.10;96.90;;;;;;6077159;23;20435;-92
2021/04/03 11:33:43;;;;;;;4.35;2.50;;;4.00;99.40;;;;;;6083443;23;20392;-90
2021/04/03 11:37:15;;;;;;;5.15;2.85;;;4.20;99.50;;;;;;6134292;23;20365;-91
2021/04/03 11:40:23;;;;;;;4.55;2.78;;;4.40;99.90;;;;;;6169390;23;20378;-92
2021/04/03 11:43:18;;;;;;;4.53;2.70;;;5.50;99.10;;;;;;6142778;23;20425;-92
2021/04/03 11:46:11;;;;;;;5.95;2.90;;;5.80;97.40;;;;;;6173922;23;20428;-92
2021/04/03 11:49:27;;;;;;;6.18;3.20;;;6.90;97.70;;;;;;6225363;23;20365;-92
2021/04/03 11:52:20;;;;;;;6.45;3.78;;;7.50;93.10;;;;;;6211687;23;20995;-92
2021/04/03 11:55:15;;;;;;;6.00;3.53;;;7.20;91.10;;;;;;6243216;23;20400;-91
2021/04/03 11:58:10;;;;;;;7.65;3.50;;;7.30;91.30;;;;;;6238069;23;20373;-92
2021/04/03 12:01:03;;;;;;;5.10;3.58;;;7.60;88.50;;;;;;6167213;23;20383;-93
2021/04/03 12:04:12;;;;;;;4.97;3.10;;;7.70;91.40;;;;;;6166397;23;20608;-91
2021/04/03 12:07:52;;;;;;;4.00;2.50;;;8.10;89.80;;;;;;6160695;23;20383;-91
2021/04/03 12:17:40;;;;;;;6.40;3.50;;;4.00;99.30;;;;;;6286807;22;20380;-93
2021/04/03 12:46:29;;;;;;;4.78;2.90;;;6.50;99.80;;;;;;6260644;22;20390;-92
2021/04/03 12:49:03;;;;;;;4.03;3.10;;;7.00;97.10;;;;;;6236522;22;20398;-92
2021/04/03 12:52:56;;;;;;;4.80;3.30;;;7.60;97.50;;;;;;6171380;23;20376;-92
2021/04/03 12:56:48;;;;;;;6.63;2.30;;;8.60;96.80;;;;;;6197638;23;20419;-92
2021/04/03 13:00:05;;;;;;;4.47;2.45;;;9.60;94.40;;;;;;5997762;23;20523;-93
2021/04/03 13:08:40;;;;;;;3.80;2.05;;;10.40;81.80;;;;;;6261505;22;20411;-94
2021/04/03 13:11:24;;;;;;;4.07;2.28;;;9.20;81.50;;;;;;6247726;22;20421;-93
2021/04/03 13:14:23;;;;;;;3.10;2.05;;;8.30;84.70;;;;;;6234076;23;20370;-93
2021/04/03 13:17:15;;;;;;;6.47;3.13;;;7.60;89.00;;;;;;6172975;23;20382;-94
2021/04/03 13:19:57;;;;;;;5.38;3.25;;;6.90;94.40;;;;;;6232776;23;20393;-94
2021/04/03 13:22:29;;;;;;;6.60;4.00;;;5.90;96.60;;;;;;6235295;23;20386;-94
2021/04/03 13:25:22;;;;;;;6.47;3.90;;;5.70;99.40;;;;;;6260372;23;20361;-92
2021/04/03 13:34:34;;;;;;;6.03;2.80;;;9.10;91.40;;;;;;6172002;23;20420;-92
2021/04/03 13:37:19;;;;;;;3.63;2.30;;;9.80;92.00;;;;;;6193545;23;20385;-92
2021/04/03 13:40:09;;;;;;;5.25;2.75;;;8.80;83.50;;;;;;6173905;23;20396;-91
2021/04/03 13:43:17;;;;;;;4.93;2.30;;;7.70;90.00;;;;;;6170615;23;20399;-92
2021/04/03 13:46:16;;;;;;;5.28;2.25;;;6.80;90.00;;;;;;6109078;23;20414;-91
2021/04/03 13:58:03;;;;;;;4.47;2.30;;;11.00;75.10;;;;;;6199638;23;20408;-96
2021/04/03 14:01:18;;;;;;;10.68;3.65;;;10.70;70.70;;;;;;6234268;22;20821;-96
2021/04/03 14:03:50;;;;;;;17.65;5.75;;;11.10;74.70;;;;;;6237687;22;20403;-96
2021/04/03 14:06:27;;;;;;;10.18;3.83;;;11.10;65.80;;;;;;6285281;22;20386;-95
2021/04/03 14:08:57;;;;;;;30.73;10.32;;;10.40;66.70;;;;;;6265292;22;20408;-93
2021/04/03 14:11:24;;;;;;;10.18;4.05;;;9.10;69.80;;;;;;6237949;22;20396;-94
2021/04/03 14:13:53;;;;;;;13.75;4.20;;;7.80;73.60;;;;;;6258780;22;20380;-94
2021/04/03 14:16:25;;;;;;;5.77;3.10;;;6.90;78.40;;;;;;6263135;22;20385;-94
2021/04/03 14:18:55;;;;;;;3.95;2.35;;;6.00;84.60;;;;;;6276523;22;20368;-93
2021/04/03 14:21:22;;;;;;;3.20;2.10;;;5.40;87.10;;;;;;6270078;22;20378;-94
2021/04/03 14:23:55;;;;;;;6.75;2.22;;;5.00;90.40;;;;;;6245996;22;20483;-92
2021/04/03 14:26:56;;;;;;;5.10;2.70;;;4.90;91.70;;;;;;6251771;22;20369;-92
2021/04/03 14:33:15;;;;;;;6.33;3.47;;;5.10;92.70;;;;;;6263492;23;20384;-93
2021/04/03 14:36:33;;;;;;;4.20;2.58;;;5.60;93.00;;;;;;6259361;22;20393;-91
2021/04/03 14:39:33;;;;;;;3.40;2.20;;;6.70;90.40;;;;;;6256237;23;20397;-93
2021/04/03 14:42:28;;;;;;;4.32;2.20;;;7.50;87.50;;;;;;6144763;23;20389;-92
2021/04/03 14:45:12;;;;;;;5.13;2.38;;;8.20;84.30;;;;;;6233674;22;20411;-96
2021/04/03 14:48:29;;;;;;;2.70;1.60;;;8.70;80.20;;;;;;6214478;23;20375;-92
2021/04/03 14:51:41;;;;;;;3.67;2.03;;;9.30;71.60;;;;;;6223983;23;20392;-91
2021/04/03 14:54:56;;;;;;;4.00;2.05;;;9.50;73.00;;;;;;6150404;23;20400;-92
2021/04/03 14:57:47;;;;;;;4.57;2.45;;;10.30;71.20;;;;;;6129714;23;20379;-91
2021/04/03 15:00:33;;;;;;;4.72;2.17;;;9.60;71.50;;;;;;6145224;23;20365;-94
2021/04/03 15:03:19;;;;;;;3.78;2.30;;;9.40;72.80;;;;;;6139729;23;20401;-93
2021/04/03 15:06:05;;;;;;;4.32;2.80;;;8.50;72.90;;;;;;6134861;23;20404;-93
2021/04/03 15:08:52;;;;;;;5.93;3.00;;;8.50;78.20;;;;;;6114737;23;20385;-91
2021/04/03 15:11:41;;;;;;;5.47;2.08;;;8.00;75.20;;;;;;6135051;23;20419;-91
2021/04/03 15:14:15;;;;;;;4.63;2.30;;;7.70;76.60;;;;;;6112812;23;20458;-94
2021/04/03 15:17:19;;;;;;;4.32;2.20;;;7.70;80.40;;;;;;6136107;23;20372;-94
2021/04/03 15:20:09;;;;;;;5.13;2.27;;;7.60;78.60;;;;;;6137033;23;20412;-92
2021/04/03 15:22:42;;;;;;;5.83;2.80;;;7.60;78.60;;;;;;6139733;23;20416;-94
2021/04/03 15:25:54;;;;;;;4.87;2.77;;;8.00;83.10;;;;;;6142185;23;20381;-91
2021/04/03 15:29:14;;;;;;;5.43;3.40;;;8.30;79.30;;;;;;6139181;23;20373;-94
2021/04/03 15:31:46;;;;;;;7.63;3.13;;;7.60;81.70;;;;;;6224499;22;20395;-91
2021/04/03 15:35:02;;;;;;;5.28;2.97;;;6.80;84.40;;;;;;6229971;22;20384;-91
2021/04/03 15:43:55;;;;;;;6.97;3.90;;;6.30;89.70;;;;;;6166358;23;20398;-92
2021/04/03 15:46:49;;;;;;;6.47;3.57;;;5.60;91.60;;;;;;6188609;22;20417;-96
2021/04/03 15:49:59;;;;;;;8.40;3.67;;;5.20;92.80;;;;;;6260938;23;20382;-96
2021/04/03 15:52:40;;;;;;;7.20;3.70;;;4.90;92.80;;;;;;6257808;22;20388;-92
2021/04/03 15:58:34;;;;;;;6.95;3.40;;;4.80;93.30;;;;;;6325079;22;20370;-94
2021/04/03 16:01:17;;;;;;;6.93;3.40;;;4.80;92.50;;;;;;6281741;22;20398;-95
2021/04/03 16:03:43;;;;;;;4.97;3.20;;;4.70;92.80;;;;;;6294968;22;20470;-96
2021/04/03 16:06:13;;;;;;;5.55;3.35;;;4.50;92.40;;;;;;6295251;22;20413;-96
2021/04/03 16:09:04;;;;;;;9.32;3.25;;;4.50;93.10;;;;;;6324185;22;20375;-95
2021/04/03 16:11:49;;;;;;;6.70;3.30;;;4.50;92.80;;;;;;6320047;22;20379;-92
2021/04/03 16:14:22;;;;;;;5.82;3.40;;;4.30;92.60;;;;;;6294225;22;20791;-95
2021/04/03 16:23:22;;;;;;;8.90;2.73;;;4.00;92.40;;;;;;6230578;22;20380;-94
2021/04/03 16:25:59;;;;;;;6.05;3.00;;;4.00;90.20;;;;;;6233828;23;20387;-96
2021/04/03 16:28:34;;;;;;;5.57;2.70;;;3.90;90.50;;;;;;6204605;23;20391;-96
2021/04/03 16:37:05;;;;;;;8.15;3.20;;;3.90;92.10;;;;;;6270464;22;20384;-93
2021/04/03 16:43:01;;;;;;;5.40;2.87;;;4.10;90.60;;;;;;6244533;22;20391;-90
2021/04/03 16:46:16;;;;;;;6.05;2.88;;;4.00;89.70;;;;;;6233426;22;20403;-93
2021/04/03 16:49:00;;;;;;;5.00;2.60;;;3.70;90.20;;;;;;6266963;22;20377;-92
2021/04/03 16:52:19;;;;;;;7.43;3.20;;;3.20;92.90;;;;;;6267707;22;20375;-94
2021/04/03 17:24:27;;;;;;;7.32;3.10;;;2.60;96.50;;;;;;6254904;22;20382;-95
2021/04/03 17:30:31;;;;;;;4.43;2.80;;;2.60;96.80;;;;;;6251393;22;20424;-95
2021/04/03 17:36:01;;;;;;;7.10;3.03;;;2.70;95.60;;;;;;6244681;22;21305;-94
2021/04/03 17:38:29;;;;;;;8.97;3.60;;;2.50;97.00;;;;;;6207941;23;20389;-93
2021/04/03 17:40:57;;;;;;;9.55;4.80;;;2.50;97.70;;;;;;6262559;23;20414;-96
2021/04/03 17:43:44;;;;;;;10.93;4.03;;;2.50;96.90;;;;;;6234180;22;20393;-93
2021/04/03 17:46:26;;;;;;;9.45;4.05;;;2.50;97.10;;;;;;6235581;22;20373;-96
2021/04/03 17:49:30;;;;;;;7.60;3.65;;;2.50;97.40;;;;;;6261313;23;20396;-96
2021/04/03 17:52:31;;;;;;;9.53;4.40;;;2.40;97.00;;;;;;6250911;23;20381;-93
2021/04/03 17:54:58;;;;;;;10.90;4.97;;;2.50;97.40;;;;;;6221679;23;20390;-96
2021/04/03 17:57:35;;;;;;;7.72;4.40;;;2.50;98.20;;;;;;6248738;23;20862;-94
2021/04/03 18:00:04;;;;;;;11.95;4.88;;;2.30;97.30;;;;;;6225318;23;20420;-95
2021/04/03 18:02:49;;;;;;;12.77;4.63;;;2.40;97.70;;;;;;6240196;23;20377;-95
2021/04/03 18:05:16;;;;;;;11.18;5.45;;;2.30;97.90;;;;;;6198504;23;20390;-96
2021/04/03 18:07:43;;;;;;;14.82;6.45;;;2.30;98.00;;;;;;6199039;23;20397;-96
2021/04/03 18:10:12;;;;;;;10.48;5.85;;;2.10;97.50;;;;;;6224638;23;20390;-95
2021/04/03 18:12:40;;;;;;;8.45;3.90;;;2.20;97.60;;;;;;6247470;22;20433;-95
2021/04/03 18:15:08;;;;;;;7.13;3.73;;;2.30;97.50;;;;;;6247540;22;20374;-95
2021/04/03 18:17:35;;;;;;;7.77;3.60;;;2.30;96.50;;;;;;6247280;22;20372;-95
2021/04/03 18:20:06;;;;;;;8.32;4.13;;;2.30;96.40;;;;;;6242347;23;20386;-94
2021/04/03 18:22:34;;;;;;;8.48;3.38;;;2.20;96.90;;;;;;6222624;23;20390;-96
2021/04/03 18:25:01;;;;;;;9.38;3.35;;;2.30;95.60;;;;;;6224129;23;20927;-94
2021/04/03 18:27:28;;;;;;;7.03;3.42;;;2.20;96.00;;;;;;6224280;23;20421;-95
2021/04/03 18:29:54;;;;;;;11.03;3.80;;;2.30;96.30;;;;;;6222404;23;20414;-95
2021/04/03 18:32:21;;;;;;;8.13;3.75;;;2.30;95.70;;;;;;6223423;23;20424;-95
2021/04/03 18:34:48;;;;;;;7.53;3.20;;;2.20;95.80;;;;;;6198841;23;20469;-95
2021/04/03 18:37:16;;;;;;;10.63;3.53;;;2.20;96.00;;;;;;6223130;23;20393;-95
2021/04/03 18:39:43;;;;;;;9.07;3.93;;;2.30;96.00;;;;;;6223267;23;20412;-95
2021/04/03 18:42:10;;;;;;;9.65;4.45;;;2.30;95.50;;;;;;6224936;23;20953;-95
2021/04/03 18:44:37;;;;;;;10.43;4.33;;;2.10;95.90;;;;;;6227990;23;20385;-94
2021/04/03 18:47:04;;;;;;;7.45;3.70;;;2.10;96.40;;;;;;6203735;23;20453;-94
2021/04/03 18:49:31;;;;;;;8.85;4.20;;;2.00;95.90;;;;;;6246207;22;20374;-95
2021/04/03 18:51:58;;;;;;;8.80;3.80;;;2.00;95.50;;;;;;6246653;22;20381;-94
2021/04/03 18:54:26;;;;;;;12.60;6.10;;;2.00;95.50;;;;;;6222236;22;20366;-96
2021/04/03 18:56:55;;;;;;;12.38;6.45;;;1.90;96.10;;;;;;6247231;22;20388;-94
2021/04/03 18:59:25;;;;;;;26.27;11.77;;;1.80;96.30;;;;;;6244747;23;20396;-94
2021/04/03 19:01:53;;;;;;;15.90;6.32;;;1.80;96.10;;;;;;6204753;23;20400;-94
2021/04/03 19:04:19;;;;;;;8.63;4.23;;;1.90;96.20;;;;;;6223024;23;20895;-95
2021/04/03 19:06:47;;;;;;;7.18;3.83;;;1.90;95.30;;;;;;6224585;23;20850;-94
2021/04/03 19:09:14;;;;;;;7.73;3.90;;;1.90;95.40;;;;;;6224129;23;20409;-95
2021/04/03 19:11:40;;;;;;;8.13;3.90;;;2.00;95.80;;;;;;6223092;23;20462;-94
2021/04/03 19:14:08;;;;;;;8.40;4.00;;;2.20;95.30;;;;;;6223205;23;20382;-94
2021/04/03 19:16:35;;;;;;;9.00;4.20;;;2.20;95.20;;;;;;6222250;23;20390;-93
2021/04/03 19:19:04;;;;;;;10.23;4.30;;;2.10;95.40;;;;;;6224074;23;20685;-94
2021/04/03 19:21:31;;;;;;;7.90;3.95;;;2.00;95.70;;;;;;6224180;23;20401;-93
2021/04/03 19:23:58;;;;;;;10.80;5.10;;;2.20;95.90;;;;;;6222689;23;20480;-94
2021/04/03 19:26:25;;;;;;;10.43;3.85;;;2.10;95.40;;;;;;6224006;23;20401;-95
2021/04/03 19:28:54;;;;;;;6.68;3.30;;;2.20;95.10;;;;;;6230348;23;20390;-94
2021/04/03 19:31:21;;;;;;;8.63;3.20;;;2.20;94.40;;;;;;6232599;23;20386;-92
2021/04/03 19:33:49;;;;;;;6.95;3.00;;;2.20;95.00;;;;;;6251651;23;20461;-91
2021/04/03 19:36:16;;;;;;;8.65;3.10;;;2.10;94.60;;;;;;6225477;23;20413;-96
2021/04/03 19:38:43;;;;;;;8.05;3.08;;;2.10;95.20;;;;;;6200046;23;20469;-96
2021/04/03 19:41:10;;;;;;;8.32;3.22;;;2.00;94.90;;;;;;6226513;23;20406;-94
2021/04/03 19:43:40;;;;;;;7.45;2.80;;;2.10;95.80;;;;;;6225377;22;20404;-96
2021/04/03 19:46:18;;;;;;;10.15;3.30;;;1.90;96.40;;;;;;6254980;23;20866;-96
2021/04/03 19:48:57;;;;;;;8.90;3.38;;;1.80;96.90;;;;;;6235413;23;20377;-92
2021/04/03 19:51:25;;;;;;;6.83;3.30;;;2.00;97.80;;;;;;6223967;23;20465;-93
2021/04/03 19:53:53;;;;;;;9.93;3.70;;;2.00;97.60;;;;;;6200017;23;20879;-95
2021/04/03 19:56:32;;;;;;;8.98;3.22;;;1.90;97.60;;;;;;6248623;23;20390;-95
2021/04/03 19:58:59;;;;;;;7.70;3.00;;;2.00;98.10;;;;;;6198447;23;20365;-93
2021/04/03 20:01:27;;;;;;;8.00;3.43;;;2.00;98.20;;;;;;6226697;23;20386;-95
2021/04/03 20:03:54;;;;;;;11.00;3.85;;;2.00;98.30;;;;;;6228821;23;20885;-95
2021/04/03 20:06:22;;;;;;;8.52;3.17;;;2.00;98.00;;;;;;6203605;23;20453;-93
2021/04/03 20:08:50;;;;;;;9.55;3.95;;;2.10;98.20;;;;;;6230273;23;20374;-96
2021/04/03 20:11:30;;;;;;;8.80;3.90;;;2.00;99.50;;;;;;6255457;23;20377;-94
2021/04/03 20:13:58;;;;;;;8.57;3.75;;;1.80;99.90;;;;;;6229366;23;20413;-92
2021/04/03 20:16:26;;;;;;;11.88;4.55;;;1.80;99.90;;;;;;6224117;23;20800;-93
2021/04/03 20:18:55;;;;;;;12.52;4.70;;;1.60;99.90;;;;;;6225244;23;20382;-95
2021/04/03 20:21:29;;;;;;;10.88;5.47;;;1.60;99.90;;;;;;6254824;23;20386;-96
2021/04/03 20:24:00;;;;;;;14.00;5.85;;;1.40;99.90;;;;;;6206143;23;20397;-95
2021/04/03 20:26:31;;;;;;;13.10;5.78;;;1.20;99.90;;;;;;6230623;23;20525;-95
2021/04/03 20:29:06;;;;;;;13.50;4.72;;;1.10;99.90;;;;;;6232424;23;20390;-96
2021/04/03 20:31:43;;;;;;;10.38;4.55;;;1.00;99.90;;;;;;6232456;23;20468;-95
2021/04/03 20:34:20;;;;;;;12.93;5.88;;;1.10;99.90;;;;;;6236716;23;20390;-96
2021/04/03 20:37:14;;;;;;;13.98;5.80;;;1.00;99.90;;;;;;6230804;23;20413;-94
2021/04/03 20:39:44;;;;;;;13.80;6.55;;;1.00;99.90;;;;;;6253899;23;20378;-93
2021/04/03 20:42:12;;;;;;;9.90;5.10;;;1.00;99.90;;;;;;6230054;23;20393;-96
2021/04/03 20:44:44;;;;;;;14.75;5.45;;;1.00;99.90;;;;;;6229538;23;20369;-93
2021/04/03 20:47:17;;;;;;;14.50;5.77;;;0.90;99.90;;;;;;6232044;23;20373;-93
2021/04/03 20:49:49;;;;;;;11.95;5.53;;;0.90;99.90;;;;;;6229568;23;20784;-96
2021/04/03 20:52:20;;;;;;;12.52;4.78;;;1.00;99.90;;;;;;6259453;23;20420;-96
2021/04/03 20:55:07;;;;;;;11.13;5.10;;;1.00;99.90;;;;;;6238561;23;20425;-94
2021/04/03 20:57:55;;;;;;;13.37;5.47;;;1.00;99.90;;;;;;6211913;23;20377;-91
2021/04/03 21:00:57;;;;;;;11.50;4.72;;;1.10;99.90;;;;;;6254263;23;20390;-94